Time;durP1;ratioP1;P1;durP2;ratioP2;P2;SDS_P1;SDS_P2;PMS_P1;PMS_P2;Temp;Humidity;BMP_temperature;BMP_pressure;BME280_temperature;BME280_humidity;BME280_pressure;Samples;Min_cycle;Max_cycle;Signal;HPM_P1;HPM_P2
2023/11/11 00:00:32;;;;;;;3.73;1.20;;;;;;;10.23;75.51;99035.00;5037822;28;20311;-83
2023/11/11 00:02:58;;;;;;;1.90;1.17;;;;;;;10.27;75.33;99020.91;5038041;28;20210;-83
2023/11/11 00:05:25;;;;;;;5.17;1.17;;;;;;;10.28;75.17;99019.16;5038032;28;20210;-84
2023/11/11 00:07:52;;;;;;;2.37;1.07;;;;;;;10.28;75.30;99021.75;5037654;28;20658;-82
2023/11/11 00:10:20;;;;;;;3.87;1.10;;;;;;;10.29;74.69;99021.69;5038398;28;20241;-84
2023/11/11 00:12:47;;;;;;;2.23;1.10;;;;;;;10.21;74.84;99038.56;5037800;28;20202;-84
2023/11/11 00:15:14;;;;;;;2.43;1.10;;;;;;;10.19;75.26;99027.34;5038084;28;20238;-83
2023/11/11 00:17:41;;;;;;;4.30;1.40;;;;;;;10.21;75.44;99015.09;5038253;28;20210;-82
2023/11/11 00:20:12;;;;;;;4.03;1.43;;;;;;;10.25;75.40;99011.47;5037308;28;20309;-82
2023/11/11 00:22:39;;;;;;;2.47;1.00;;;;;;;10.25;76.02;98994.06;5037530;28;20206;-83
2023/11/11 00:25:06;;;;;;;2.53;1.10;;;;;;;10.19;76.39;98973.44;5038987;28;20206;-83
2023/11/11 00:27:41;;;;;;;4.67;1.70;;;;;;;10.22;76.53;98959.44;5037434;28;20203;-83
2023/11/11 00:30:08;;;;;;;3.20;1.67;;;;;;;10.24;77.73;98937.56;5038284;28;20725;-81
2023/11/11 00:32:34;;;;;;;3.23;1.50;;;;;;;10.24;78.65;98910.66;5048394;28;20216;-79
2023/11/11 00:35:01;;;;;;;3.13;1.20;;;;;;;10.20;78.74;98889.06;5051633;28;20198;-79
2023/11/11 00:37:28;;;;;;;3.50;1.37;;;;;;;10.18;79.08;98877.88;5050647;28;20291;-79
2023/11/11 00:39:54;;;;;;;2.50;1.27;;;;;;;10.14;79.41;98863.25;5043632;28;22101;-81
2023/11/11 00:42:21;;;;;;;5.83;1.27;;;;;;;10.12;79.12;98868.53;5059559;28;20197;-81
2023/11/11 00:44:49;;;;;;;2.27;1.27;;;;;;;10.11;79.67;98856.44;5066376;28;20683;-81
2023/11/11 00:47:16;;;;;;;1.17;1.00;;;;;;;10.11;80.26;98839.94;5067052;28;20654;-82
2023/11/11 00:49:43;;;;;;;4.43;1.27;;;;;;;10.11;80.40;98830.34;5066672;28;20229;-82
2023/11/11 00:52:09;;;;;;;3.90;1.23;;;;;;;10.09;80.35;98832.19;5045863;28;20209;-82
2023/11/11 00:54:38;;;;;;;3.30;1.40;;;;;;;10.03;81.20;98827.25;5047176;28;20206;-82
2023/11/11 00:57:05;;;;;;;3.60;1.40;;;;;;;9.97;82.07;98801.44;5047451;28;20239;-81
2023/11/11 00:59:31;;;;;;;3.70;1.00;;;;;;;9.95;82.57;98787.63;5045154;28;20596;-82
2023/11/11 01:02:00;;;;;;;4.43;1.10;;;;;;;9.96;83.09;98759.78;5037998;28;20225;-83
2023/11/11 01:04:27;;;;;;;3.13;1.50;;;;;;;9.90;83.26;98750.47;5037916;28;20208;-83
2023/11/11 01:06:53;;;;;;;2.87;1.10;;;;;;;9.93;83.10;98729.50;5037122;28;20675;-83
2023/11/11 01:09:20;;;;;;;3.03;1.37;;;;;;;9.87;83.71;98724.53;5037576;28;20557;-83
2023/11/11 01:11:47;;;;;;;1.70;0.90;;;;;;;9.83;84.07;98713.41;5028980;28;20330;-83
2023/11/11 01:14:13;;;;;;;1.57;0.87;;;;;;;9.90;83.65;98719.19;5037164;28;20208;-83
2023/11/11 01:16:40;;;;;;;2.23;1.20;;;;;;;9.86;84.35;98708.06;5037304;28;20206;-83
2023/11/11 01:19:08;;;;;;;4.00;1.00;;;;;;;9.87;84.14;98703.69;5037417;28;20203;-83
2023/11/11 01:21:34;;;;;;;2.93;1.50;;;;;;;9.89;83.81;98709.69;5035424;28;20230;-84
2023/11/11 01:24:01;;;;;;;5.83;1.20;;;;;;;9.88;83.74;98708.00;5036798;28;20199;-83
2023/11/11 01:26:27;;;;;;;3.80;1.77;;;;;;;9.79;83.99;98706.66;5037690;28;20575;-81
2023/11/11 01:28:54;;;;;;;4.03;1.40;;;;;;;9.77;84.81;98691.97;5049551;28;20206;-84
2023/11/11 01:31:21;;;;;;;4.50;1.43;;;;;;;9.82;84.09;98695.25;5055550;28;20221;-84
2023/11/11 01:33:47;;;;;;;2.83;1.67;;;;;;;9.81;84.41;98688.31;5028010;28;20209;-84
2023/11/11 01:36:15;;;;;;;2.17;1.00;;;;;;;9.81;83.91;98686.59;5034673;28;20406;-82
2023/11/11 01:38:41;;;;;;;2.13;1.20;;;;;;;9.82;84.16;98692.63;5035967;28;20210;-83
2023/11/11 01:41:08;;;;;;;2.90;1.20;;;;;;;9.78;83.97;98699.72;5033440;28;20229;-82
2023/11/11 01:43:34;;;;;;;4.80;1.77;;;;;;;9.76;83.75;98704.16;5055317;28;20697;-83
2023/11/11 01:46:01;;;;;;;3.10;1.10;;;;;;;9.77;83.59;98705.00;5055490;28;20208;-83
2023/11/11 01:48:29;;;;;;;2.70;1.13;;;;;;;9.73;83.32;98717.31;5055556;28;20201;-84
2023/11/11 01:50:56;;;;;;;4.73;1.53;;;;;;;9.69;83.28;98721.84;5042805;28;20233;-81
2023/11/11 01:53:24;;;;;;;3.47;1.40;;;;;;;9.69;83.21;98716.63;5035686;28;20213;-83
2023/11/11 01:55:52;;;;;;;2.53;1.20;;;;;;;9.66;83.30;98714.13;5027921;28;20204;-83
2023/11/11 01:58:21;;;;;;;5.23;1.47;;;;;;;9.69;83.12;98723.56;5035388;28;20207;-82
2023/11/11 02:00:48;;;;;;;4.40;1.10;;;;;;;9.70;82.85;98730.50;5036284;28;20222;-83
2023/11/11 02:03:15;;;;;;;2.30;1.20;;;;;;;9.69;83.13;98720.97;5036694;28;20220;-83
2023/11/11 02:05:42;;;;;;;2.43;1.03;;;;;;;9.70;83.23;98718.31;5035725;28;20206;-83
2023/11/11 02:08:09;;;;;;;2.03;1.00;;;;;;;9.64;84.23;98709.91;5040965;28;20202;-84
2023/11/11 02:10:38;;;;;;;3.00;1.10;;;;;;;9.69;83.46;98702.72;5055073;28;20225;-83
2023/11/11 02:13:06;;;;;;;1.50;1.07;;;;;;;9.68;84.04;98690.63;5054467;28;20202;-83
2023/11/11 02:15:33;;;;;;;2.93;1.27;;;;;;;9.67;83.84;98695.00;5053786;28;20206;-81
2023/11/11 02:18:00;;;;;;;4.43;1.97;;;;;;;9.67;84.23;98686.31;5034737;28;20478;-82
2023/11/11 02:20:29;;;;;;;3.50;1.40;;;;;;;9.71;83.90;98688.75;5034646;28;20237;-83
2023/11/11 02:22:55;;;;;;;3.03;1.10;;;;;;;9.76;83.49;98692.91;5034145;28;20212;-83
2023/11/11 02:25:23;;;;;;;1.60;1.17;;;;;;;9.73;83.84;98694.75;5035328;28;20653;-82
2023/11/11 02:27:50;;;;;;;2.90;1.30;;;;;;;9.73;84.10;98686.06;5029802;28;20206;-83
2023/11/11 02:30:16;;;;;;;4.60;1.20;;;;;;;9.74;84.19;98672.97;5054664;28;20232;-82
2023/11/11 02:32:43;;;;;;;2.20;1.00;;;;;;;9.76;84.16;98670.28;5054925;28;20298;-84
2023/11/11 02:35:09;;;;;;;4.03;1.10;;;;;;;9.77;84.06;98678.94;5055040;28;20629;-84
2023/11/11 02:37:35;;;;;;;4.73;1.47;;;;;;;9.77;83.58;98684.16;5054539;28;20680;-84
2023/11/11 02:40:02;;;;;;;1.50;1.30;;;;;;;9.78;83.31;98684.09;5054473;28;20218;-83
2023/11/11 02:42:30;;;;;;;2.50;1.20;;;;;;;9.82;83.09;98697.84;5053621;28;20236;-82
2023/11/11 02:44:56;;;;;;;3.77;1.97;;;;;;;9.80;83.06;98703.13;5056258;28;20212;-83
2023/11/11 02:47:23;;;;;;;2.33;1.40;;;;;;;9.88;82.89;98700.19;5058275;28;20201;-81
2023/11/11 02:49:49;;;;;;;2.20;1.33;;;;;;;9.92;82.78;98702.56;5056729;28;20208;-83
2023/11/11 02:52:15;;;;;;;2.80;1.17;;;;;;;9.91;83.14;98706.09;5036905;28;20723;-81
2023/11/11 02:54:42;;;;;;;3.70;1.40;;;;;;;9.98;82.30;98711.88;5038304;28;20218;-81
2023/11/11 02:57:10;;;;;;;1.80;1.10;;;;;;;9.99;81.92;98723.16;5037985;28;20214;-84
2023/11/11 02:59:39;;;;;;;2.07;1.03;;;;;;;9.96;81.69;98741.53;5037209;28;20261;-81
2023/11/11 03:02:07;;;;;;;2.13;1.23;;;;;;;9.95;82.30;98738.09;5036688;28;20233;-81
2023/11/11 03:04:33;;;;;;;2.03;1.03;;;;;;;9.97;83.48;98719.75;5037432;28;20738;-82
2023/11/11 03:07:00;;;;;;;3.13;1.20;;;;;;;9.99;82.75;98713.59;5036792;28;20230;-84
2023/11/11 03:09:27;;;;;;;1.40;1.00;;;;;;;9.99;82.94;98723.16;5037628;28;20555;-82
2023/11/11 03:11:54;;;;;;;1.70;1.10;;;;;;;10.03;83.24;98711.66;5037211;28;20214;-81
2023/11/11 03:14:20;;;;;;;3.63;1.20;;;;;;;10.03;83.31;98707.31;5037892;28;20203;-84
2023/11/11 03:16:48;;;;;;;3.50;1.30;;;;;;;10.03;83.30;98703.84;5036567;28;20693;-80
2023/11/11 03:19:15;;;;;;;2.63;1.20;;;;;;;10.01;83.53;98703.94;5036584;28;20637;-81
2023/11/11 03:21:41;;;;;;;2.07;0.80;;;;;;;10.01;84.50;98684.81;5038758;28;20252;-82
2023/11/11 03:24:08;;;;;;;5.90;1.27;;;;;;;10.04;84.56;98677.72;5037610;28;20217;-81
2023/11/11 03:26:35;;;;;;;2.13;0.90;;;;;;;10.08;84.68;98673.22;5036819;28;20215;-83
2023/11/11 03:29:02;;;;;;;1.90;0.97;;;;;;;10.07;84.70;98667.16;5036762;28;20204;-83
2023/11/11 03:31:29;;;;;;;3.43;1.13;;;;;;;10.07;84.88;98661.97;5038444;28;20218;-83
2023/11/11 03:33:57;;;;;;;2.20;1.03;;;;;;;10.07;85.07;98659.34;5038262;28;20225;-84
2023/11/11 03:36:23;;;;;;;4.50;1.00;;;;;;;10.04;85.70;98648.22;5036311;28;20237;-83
2023/11/11 03:38:50;;;;;;;3.53;1.50;;;;;;;10.01;86.06;98640.50;5037166;28;20210;-83
2023/11/11 03:41:16;;;;;;;2.27;1.10;;;;;;;10.03;85.91;98643.91;5037548;28;20318;-83
2023/11/11 03:43:43;;;;;;;2.20;1.30;;;;;;;10.03;85.49;98642.16;5038228;28;20209;-83
2023/11/11 03:46:09;;;;;;;3.10;1.00;;;;;;;10.03;85.47;98644.75;5036728;28;20260;-83
2023/11/11 03:48:36;;;;;;;4.63;1.10;;;;;;;10.05;85.63;98642.06;5037264;28;20211;-84
2023/11/11 03:51:04;;;;;;;3.60;1.20;;;;;;;10.03;85.89;98643.91;5036334;28;20226;-83
2023/11/11 03:53:30;;;;;;;3.40;1.40;;;;;;;10.02;86.04;98642.22;5036903;28;20218;-83
2023/11/11 03:55:57;;;;;;;3.00;1.00;;;;;;;10.02;86.43;98637.00;5036776;28;20213;-83
2023/11/11 03:58:23;;;;;;;3.37;1.20;;;;;;;9.81;86.44;98639.69;5036202;28;20206;-82
2023/11/11 04:00:50;;;;;;;3.40;1.73;;;;;;;9.92;86.46;98641.78;5035709;28;20685;-84
2023/11/11 04:03:17;;;;;;;2.43;1.13;;;;;;;9.93;86.55;98641.72;5035740;28;20199;-80
2023/11/11 04:05:45;;;;;;;5.50;1.40;;;;;;;9.94;86.65;98642.56;5029390;28;20212;-81
2023/11/11 04:08:13;;;;;;;2.10;1.37;;;;;;;9.97;86.55;98645.03;5055386;28;20801;-82
2023/11/11 04:10:39;;;;;;;3.30;1.00;;;;;;;9.97;86.92;98637.22;5049649;28;20222;-83
2023/11/11 04:13:06;;;;;;;2.73;1.10;;;;;;;9.96;87.42;98629.47;5053519;28;20226;-83
2023/11/11 04:15:32;;;;;;;3.93;1.30;;;;;;;9.94;87.89;98624.31;5035919;28;20690;-82
2023/11/11 04:17:59;;;;;;;2.80;1.30;;;;;;;9.90;88.24;98612.34;5036106;28;20202;-83
2023/11/11 04:20:25;;;;;;;2.30;1.23;;;;;;;9.92;88.64;98607.91;5035932;28;20224;-81
2023/11/11 04:22:52;;;;;;;2.47;1.20;;;;;;;9.94;88.22;98608.69;5034290;28;20242;-81
2023/11/11 04:25:19;;;;;;;3.80;1.93;;;;;;;9.88;88.10;98617.63;5036643;28;20202;-83
2023/11/11 04:27:47;;;;;;;3.53;1.67;;;;;;;9.87;88.86;98612.47;5035313;28;20214;-82
2023/11/11 04:30:14;;;;;;;5.30;1.43;;;;;;;9.87;88.87;98604.66;5035581;28;20233;-82
2023/11/11 04:32:41;;;;;;;1.83;1.40;;;;;;;9.97;87.75;98612.91;5036393;28;20197;-81
2023/11/11 04:35:08;;;;;;;2.57;1.43;;;;;;;9.91;87.53;98638.34;5055733;28;20205;-83
2023/11/11 04:37:35;;;;;;;3.97;1.50;;;;;;;9.80;88.23;98630.16;5054951;28;20214;-83
2023/11/11 04:40:01;;;;;;;3.30;1.50;;;;;;;9.80;88.41;98639.75;5056014;28;20217;-81
2023/11/11 04:42:29;;;;;;;2.07;1.20;;;;;;;9.80;88.71;98627.56;5040102;28;20276;-81
2023/11/11 04:44:56;;;;;;;3.13;1.00;;;;;;;9.70;88.77;98632.31;5036240;28;20665;-82
2023/11/11 04:47:23;;;;;;;3.00;1.40;;;;;;;9.78;88.56;98636.38;5036060;28;20202;-83
2023/11/11 04:49:49;;;;;;;4.33;1.30;;;;;;;9.76;89.57;98632.97;5036266;28;20217;-84
2023/11/11 04:52:17;;;;;;;2.37;1.53;;;;;;;9.82;89.24;98625.72;5035305;28;20692;-83
2023/11/11 04:54:43;;;;;;;1.47;1.00;;;;;;;9.84;89.47;98625.66;5036355;28;20213;-83
2023/11/11 04:57:10;;;;;;;4.07;1.40;;;;;;;9.87;89.10;98633.31;5035925;28;20672;-83
2023/11/11 04:59:38;;;;;;;2.97;1.70;;;;;;;9.63;90.36;98622.25;5045166;28;20608;-80
2023/11/11 05:02:04;;;;;;;3.87;1.63;;;;;;;9.61;90.16;98637.09;5036103;28;20764;-83
2023/11/11 05:04:31;;;;;;;6.47;1.57;;;;;;;9.62;90.92;98636.19;5051783;28;21125;-82
2023/11/11 05:06:58;;;;;;;1.63;1.40;;;;;;;8.20;95.94;98596.94;5055270;28;20580;-83
2023/11/11 05:09:24;;;;;;;2.03;1.03;;;;;;;7.68;98.88;98530.47;5056201;28;20259;-82
2023/11/11 05:11:51;;;;;;;1.77;1.00;;;;;;;7.72;100.00;98487.91;5055910;28;20290;-84
2023/11/11 05:14:19;;;;;;;1.73;0.73;;;;;;;7.52;100.00;98465.31;5056175;28;20814;-80
2023/11/11 05:16:52;;;;;;;0.70;0.70;;;;;;;7.63;100.00;98449.34;5055782;28;20292;-81
2023/11/11 05:19:18;;;;;;;0.70;0.60;;;;;;;7.40;100.00;98467.53;5056063;28;20635;-83
2023/11/11 05:21:45;;;;;;;0.60;0.60;;;;;;;7.49;98.64;98474.97;5038196;28;20227;-82
2023/11/11 05:24:11;;;;;;;1.10;0.40;;;;;;;7.29;99.19;98484.34;5036909;28;20210;-81
2023/11/11 05:26:38;;;;;;;0.40;0.40;;;;;;;7.42;98.63;98483.91;5036162;28;20210;-82
2023/11/11 05:29:05;;;;;;;0.97;0.30;;;;;;;7.33;98.25;98501.50;5028786;28;20202;-83
2023/11/11 05:31:31;;;;;;;0.97;0.50;;;;;;;7.18;99.09;98516.81;5035778;28;20700;-83
2023/11/11 05:33:59;;;;;;;0.50;0.30;;;;;;;7.18;99.42;98507.25;5036469;28;20209;-81
2023/11/11 05:36:26;;;;;;;0.53;0.40;;;;;;;7.07;98.20;98506.78;5036815;28;20208;-82
2023/11/11 05:38:53;;;;;;;0.30;0.30;;;;;;;7.34;99.08;98515.34;5030003;28;20203;-81
2023/11/11 05:41:19;;;;;;;0.40;0.40;;;;;;;7.16;97.89;98524.63;5055731;28;20225;-81
2023/11/11 05:43:45;;;;;;;0.30;0.30;;;;;;;7.15;97.38;98530.72;5055668;28;20208;-81
2023/11/11 05:46:12;;;;;;;0.30;0.30;;;;;;;7.16;97.23;98533.25;5055943;28;20202;-83
2023/11/11 05:48:40;;;;;;;0.53;0.40;;;;;;;7.22;97.71;98537.38;5056161;28;20209;-83
2023/11/11 05:51:08;;;;;;;0.50;0.20;;;;;;;7.09;96.45;98555.13;5030426;28;20217;-83
2023/11/11 05:53:35;;;;;;;0.30;0.30;;;;;;;6.89;98.36;98550.63;5055885;28;20221;-82
2023/11/11 05:56:02;;;;;;;0.30;0.20;;;;;;;6.95;98.86;98534.84;5036292;28;20213;-82
2023/11/11 05:58:28;;;;;;;0.20;0.20;;;;;;;6.83;100.00;98530.09;5035600;28;20210;-83
2023/11/11 06:00:55;;;;;;;0.20;0.20;;;;;;;6.83;100.00;98526.66;5032516;28;20305;-83
2023/11/11 06:03:21;;;;;;;0.40;0.33;;;;;;;6.75;100.00;98525.16;5043035;28;20229;-82
2023/11/11 06:05:48;;;;;;;1.90;0.27;;;;;;;6.69;100.00;98503.81;5055871;28;20275;-81
2023/11/11 06:08:16;;;;;;;0.20;0.20;;;;;;;6.66;100.00;98501.31;5055559;28;20579;-83
2023/11/11 06:10:43;;;;;;;0.20;0.20;;;;;;;6.93;100.00;98496.91;5055634;28;20704;-80
2023/11/11 06:13:10;;;;;;;0.20;0.20;;;;;;;6.94;100.00;98496.84;5039387;28;20220;-82
2023/11/11 06:15:36;;;;;;;0.40;0.40;;;;;;;7.03;100.00;98495.66;5054393;28;20224;-82
2023/11/11 06:18:04;;;;;;;0.40;0.40;;;;;;;6.98;100.00;98497.59;5055046;28;20209;-82
2023/11/11 06:20:30;;;;;;;0.40;0.40;;;;;;;7.06;100.00;98494.75;5057821;28;20222;-80
2023/11/11 06:22:57;;;;;;;0.30;0.30;;;;;;;6.95;100.00;98495.09;5055922;28;20323;-82
2023/11/11 06:25:25;;;;;;;0.23;0.20;;;;;;;7.26;100.00;98510.41;5039225;28;20579;-82
2023/11/11 06:27:52;;;;;;;0.33;0.33;;;;;;;7.14;100.00;98524.69;5037848;28;20237;-82
2023/11/11 06:30:19;;;;;;;0.30;0.30;;;;;;;7.32;100.00;98540.50;5034903;28;20572;-83
2023/11/11 06:32:46;;;;;;;0.37;0.30;;;;;;;7.46;100.00;98543.41;5058682;28;20204;-82
2023/11/11 06:35:12;;;;;;;0.37;0.30;;;;;;;7.44;100.00;98558.22;5058655;28;20208;-80
2023/11/11 06:37:39;;;;;;;0.50;0.50;;;;;;;7.18;100.00;98556.56;5059137;28;20210;-82
2023/11/11 06:40:06;;;;;;;0.40;0.40;;;;;;;7.39;100.00;98567.91;5038890;28;20222;-83
2023/11/11 06:42:34;;;;;;;0.70;0.70;;;;;;;7.58;100.00;98567.25;5038281;28;20627;-82
2023/11/11 06:45:01;;;;;;;0.70;0.70;;;;;;;7.81;100.00;98576.75;5039005;28;20206;-81
2023/11/11 06:47:28;;;;;;;0.83;0.73;;;;;;;7.98;98.76;98591.72;5043386;28;20272;-80
2023/11/11 06:49:55;;;;;;;0.77;0.60;;;;;;;8.08;97.60;98629.44;5045332;28;20202;-82
2023/11/11 06:52:21;;;;;;;0.47;0.43;;;;;;;8.18;96.91;98651.56;5037723;28;20210;-80
2023/11/11 06:54:48;;;;;;;0.70;0.53;;;;;;;8.27;95.21;98678.97;5038400;28;20202;-82
2023/11/11 06:57:14;;;;;;;0.70;0.70;;;;;;;8.34;94.45;98696.00;5038129;28;20206;-83
2023/11/11 06:59:42;;;;;;;0.40;0.40;;;;;;;8.44;94.00;98719.94;5038230;28;20825;-82
2023/11/11 07:02:12;;;;;;;0.37;0.37;;;;;;;8.45;93.08;98742.47;5035259;28;20234;-82
2023/11/11 07:04:39;;;;;;;0.30;0.30;;;;;;;8.48;92.92;98756.19;5049644;28;20213;-82
2023/11/11 07:07:05;;;;;;;0.50;0.27;;;;;;;8.51;93.01;98763.03;5057186;28;20208;-81
2023/11/11 07:09:32;;;;;;;1.10;0.50;;;;;;;8.55;92.02;98780.22;5057605;28;20201;-82
2023/11/11 07:11:58;;;;;;;1.67;0.50;;;;;;;8.55;91.34;98801.00;5057518;28;20236;-82
2023/11/11 07:14:25;;;;;;;1.97;0.50;;;;;;;8.58;91.02;98813.03;5058589;28;20203;-82
2023/11/11 07:16:53;;;;;;;0.70;0.70;;;;;;;8.61;91.62;98819.00;5049484;28;20692;-83
2023/11/11 07:19:19;;;;;;;1.67;0.60;;;;;;;8.65;90.68;98836.16;5038082;28;20202;-83
2023/11/11 07:21:46;;;;;;;1.33;0.77;;;;;;;8.66;89.87;98845.69;5037188;28;20706;-84
2023/11/11 07:24:12;;;;;;;1.47;0.87;;;;;;;8.62;90.67;98851.03;5038773;28;20206;-83
2023/11/11 07:26:41;;;;;;;2.30;0.97;;;;;;;8.68;90.00;98856.88;5038036;28;20211;-83
2023/11/11 07:29:09;;;;;;;1.27;1.00;;;;;;;8.51;91.09;98852.28;5031820;28;20207;-83
2023/11/11 07:31:36;;;;;;;1.00;1.00;;;;;;;8.61;90.73;98852.78;5057433;28;20236;-83
2023/11/11 07:34:06;;;;;;;1.63;1.30;;;;;;;8.65;91.48;98849.19;5058279;28;20727;-83
2023/11/11 07:36:32;;;;;;;1.53;1.43;;;;;;;8.38;92.95;98829.34;5057355;28;20205;-83
2023/11/11 07:38:59;;;;;;;2.33;2.00;;;;;;;8.47;92.90;98827.28;5058121;28;20210;-83
2023/11/11 07:41:25;;;;;;;2.83;2.63;;;;;;;8.51;93.46;98818.47;5058099;28;20723;-84
2023/11/11 07:43:55;;;;;;;3.80;3.50;;;;;;;8.12;94.88;98818.13;5057951;28;20257;-84
2023/11/11 07:46:22;;;;;;;3.97;3.53;;;;;;;8.06;97.70;98771.56;5058226;28;20206;-84
2023/11/11 07:48:49;;;;;;;3.87;3.53;;;;;;;8.00;98.83;98738.84;5057577;28;20776;-83
2023/11/11 07:51:18;;;;;;;4.30;3.63;;;;;;;8.13;97.95;98732.31;5028443;28;20232;-87
2023/11/11 07:53:45;;;;;;;4.83;4.33;;;;;;;8.13;98.72;98723.66;5054324;28;20684;-86
2023/11/11 07:56:11;;;;;;;5.87;5.20;;;;;;;8.04;98.74;98731.78;5058156;28;20213;-85
2023/11/11 07:58:38;;;;;;;6.93;6.07;;;;;;;7.83;100.00;98723.00;5057253;28;20695;-86
2023/11/11 08:01:08;;;;;;;7.90;7.20;;;;;;;7.71;100.00;98711.28;5048445;28;20230;-86
2023/11/11 08:03:34;;;;;;;7.97;7.27;;;;;;;7.67;100.00;98692.41;5032372;28;20226;-84
2023/11/11 08:06:01;;;;;;;7.63;6.93;;;;;;;7.76;100.00;98691.22;5036615;28;20221;-86
2023/11/11 08:08:29;;;;;;;8.03;7.33;;;;;;;7.53;100.00;98692.88;5038122;28;20260;-85
2023/11/11 08:10:56;;;;;;;7.13;6.63;;;;;;;7.79;100.00;98685.94;5037987;28;20770;-86
2023/11/11 08:13:23;;;;;;;7.80;7.03;;;;;;;7.83;100.00;98687.50;5037094;28;20202;-85
2023/11/11 08:15:50;;;;;;;9.77;7.47;;;;;;;7.60;100.00;98688.31;5044955;28;20668;-84
2023/11/11 08:18:17;;;;;;;7.50;6.80;;;;;;;7.67;100.00;98681.16;5029616;28;20206;-83
2023/11/11 08:20:44;;;;;;;8.43;6.70;;;;;;;7.46;100.00;98682.75;5033023;28;20259;-85
2023/11/11 08:23:11;;;;;;;7.57;6.87;;;;;;;7.51;100.00;98684.31;5055066;28;20241;-86
2023/11/11 08:25:39;;;;;;;7.70;7.03;;;;;;;7.82;100.00;98684.97;5058332;28;20236;-86
2023/11/11 08:28:07;;;;;;;7.90;7.30;;;;;;;7.81;100.00;98706.63;5057994;28;20206;-86
2023/11/11 08:30:34;;;;;;;6.83;6.23;;;;;;;7.94;98.57;98729.50;5048892;28;20226;-87
2023/11/11 08:33:02;;;;;;;6.63;6.13;;;;;;;8.00;99.48;98738.84;5038864;28;20221;-89
2023/11/11 08:35:29;;;;;;;6.70;6.20;;;;;;;7.95;99.28;98749.41;5037285;28;20412;-84
2023/11/11 08:38:00;;;;;;;7.17;6.60;;;;;;;8.05;100.00;98741.28;5040092;28;20217;-82
2023/11/11 08:40:26;;;;;;;7.37;6.77;;;;;;;8.21;100.00;98746.78;5051676;28;20260;-80
2023/11/11 08:42:54;;;;;;;8.60;7.27;;;;;;;8.18;99.54;98754.69;5070754;28;20222;-81
2023/11/11 08:45:21;;;;;;;6.77;6.17;;;;;;;8.08;98.49;98775.78;5037876;28;20214;-80
2023/11/11 08:47:48;;;;;;;7.20;6.43;;;;;;;8.15;97.98;98774.69;5044869;28;20202;-82
2023/11/11 08:50:14;;;;;;;6.53;5.93;;;;;;;8.19;98.16;98787.59;5043342;28;20222;-82
2023/11/11 08:52:42;;;;;;;7.27;5.60;;;;;;;8.16;97.34;98802.34;5033707;28;20669;-82
2023/11/11 08:55:08;;;;;;;5.77;4.93;;;;;;;8.18;96.82;98804.91;5042555;28;20207;-79
2023/11/11 08:57:35;;;;;;;4.83;4.43;;;;;;;8.27;96.75;98817.59;5040153;28;20660;-80
2023/11/11 09:00:07;;;;;;;5.73;5.03;;;;;;;8.51;98.44;98804.63;5053949;28;20264;-82
2023/11/11 09:02:34;;;;;;;4.43;4.13;;;;;;;8.16;94.46;98845.69;5055406;28;20226;-84
2023/11/11 09:05:00;;;;;;;4.30;3.90;;;;;;;8.20;95.01;98857.69;5045715;28;20214;-83
2023/11/11 09:07:27;;;;;;;3.37;3.17;;;;;;;7.98;94.79;98865.38;5029511;28;20212;-82
2023/11/11 09:09:54;;;;;;;3.20;2.73;;;;;;;7.80;94.74;98873.78;5053892;28;20202;-83
2023/11/11 09:12:20;;;;;;;4.03;3.67;;;;;;;8.20;96.18;98854.25;5053735;28;20204;-84
2023/11/11 09:14:47;;;;;;;4.03;3.73;;;;;;;8.45;95.28;98854.25;5053761;28;20221;-83
2023/11/11 09:17:15;;;;;;;4.23;3.83;;;;;;;8.83;97.57;98837.25;5033397;28;20209;-82
2023/11/11 09:19:41;;;;;;;4.27;3.93;;;;;;;8.82;93.18;98898.00;5033789;28;20207;-84
2023/11/11 09:22:08;;;;;;;2.43;2.17;;;;;;;8.07;90.44;98961.22;5045266;28;20209;-85
2023/11/11 09:24:35;;;;;;;2.40;2.20;;;;;;;7.91;90.80;98983.41;5056305;28;20237;-85
2023/11/11 09:27:01;;;;;;;3.33;2.50;;;;;;;8.09;91.19;98975.00;5048074;28;20225;-82
2023/11/11 09:29:28;;;;;;;2.63;2.43;;;;;;;8.05;91.81;98973.41;5033603;28;20214;-84
2023/11/11 09:31:54;;;;;;;2.60;2.20;;;;;;;7.92;91.24;98977.28;5033430;28;20230;-82
2023/11/11 09:34:23;;;;;;;2.80;1.80;;;;;;;7.51;92.26;98988.06;5033392;28;20195;-82
2023/11/11 09:36:50;;;;;;;2.63;1.87;;;;;;;7.59;92.91;98972.25;5032223;28;20684;-84
2023/11/11 09:39:17;;;;;;;2.90;2.27;;;;;;;7.91;92.97;98950.47;5031291;28;20209;-86
2023/11/11 09:41:43;;;;;;;2.37;2.07;;;;;;;7.95;92.91;98948.63;5031457;28;20225;-81
2023/11/11 09:44:10;;;;;;;2.07;1.93;;;;;;;8.01;91.68;98965.75;5033157;28;20236;-79
2023/11/11 09:46:45;;;;;;;1.80;1.70;;;;;;;7.95;90.91;98992.78;5032037;28;20206;-85
2023/11/11 09:49:12;;;;;;;1.73;1.63;;;;;;;8.07;91.28;98989.81;5032573;28;20208;-84
2023/11/11 09:51:40;;;;;;;3.10;1.70;;;;;;;7.80;90.55;99022.69;5031705;28;20609;-81
2023/11/11 09:54:08;;;;;;;4.30;1.80;;;;;;;7.96;90.36;99018.69;5038041;28;20201;-83
2023/11/11 09:56:36;;;;;;;2.37;1.80;;;;;;;7.94;89.54;99038.69;5038686;28;20214;-83
2023/11/11 09:59:05;;;;;;;2.20;1.67;;;;;;;7.86;89.93;99029.44;5038850;28;20287;-83
2023/11/11 10:01:33;;;;;;;1.50;1.40;;;;;;;7.83;89.73;99047.72;5036915;28;20234;-79
2023/11/11 10:04:00;;;;;;;1.70;1.60;;;;;;;8.12;89.61;99034.66;5037898;28;20352;-82
2023/11/11 10:06:26;;;;;;;2.00;1.80;;;;;;;8.12;89.02;99057.22;5037615;28;20213;-83
2023/11/11 10:08:55;;;;;;;2.43;1.97;;;;;;;8.04;89.39;99057.44;5038713;28;20703;-82
2023/11/11 10:11:22;;;;;;;2.87;2.13;;;;;;;8.00;88.88;99062.78;5038019;28;20723;-84
2023/11/11 10:13:50;;;;;;;2.50;2.30;;;;;;;8.06;89.71;99063.44;5038094;28;20209;-84
2023/11/11 10:16:21;;;;;;;4.30;2.90;;;;;;;7.99;89.94;99051.56;5047085;28;20278;-82
2023/11/11 10:18:50;;;;;;;2.70;2.47;;;;;;;8.05;90.63;99038.38;5038108;28;20632;-84
2023/11/11 10:21:17;;;;;;;2.63;2.37;;;;;;;7.81;90.22;99046.91;5036400;28;20272;-85
2023/11/11 10:23:45;;;;;;;3.73;3.40;;;;;;;8.03;89.95;99034.97;5038774;28;20222;-83
2023/11/11 10:26:13;;;;;;;2.87;2.10;;;;;;;8.07;90.38;99041.78;5038092;28;20206;-83
2023/11/11 10:28:39;;;;;;;3.30;2.57;;;;;;;8.24;91.63;99017.00;5038743;28;20209;-83
2023/11/11 10:31:07;;;;;;;4.07;2.60;;;;;;;8.24;91.23;99015.22;5038735;28;20226;-83
2023/11/11 10:33:34;;;;;;;3.70;2.20;;;;;;;8.30;91.18;99012.44;5037505;28;20213;-83
2023/11/11 10:36:01;;;;;;;4.30;3.33;;;;;;;8.18;92.17;99019.78;5037360;28;20232;-84
2023/11/11 10:38:28;;;;;;;2.60;2.40;;;;;;;8.08;92.53;98991.47;5036262;28;20876;-83
2023/11/11 10:41:03;;;;;;;2.43;2.10;;;;;;;8.18;91.46;98992.03;5037324;28;20759;-85
2023/11/11 10:43:31;;;;;;;3.70;2.40;;;;;;;8.26;91.11;99003.03;5037951;28;20774;-86
2023/11/11 10:45:58;;;;;;;2.83;2.43;;;;;;;8.26;92.54;99003.03;5038679;28;20588;-85
2023/11/11 10:48:25;;;;;;;3.07;2.30;;;;;;;8.24;94.01;98978.00;5038895;28;20208;-84
2023/11/11 10:50:54;;;;;;;3.37;2.70;;;;;;;8.17;93.93;98946.16;5038196;28;20238;-84
2023/11/11 10:53:21;;;;;;;2.90;2.60;;;;;;;8.59;94.21;98937.00;5038215;28;20758;-84
2023/11/11 10:55:52;;;;;;;3.87;2.30;;;;;;;8.63;91.88;98973.22;5038481;28;20264;-83
2023/11/11 10:58:28;;;;;;;6.17;2.10;;;;;;;8.82;90.93;98988.19;5037882;28;20289;-83
2023/11/11 11:00:58;;;;;;;3.20;2.60;;;;;;;9.15;90.72;98993.94;5038091;28;20249;-85
2023/11/11 11:03:27;;;;;;;2.53;2.33;;;;;;;8.93;88.90;99035.50;5038608;28;20609;-83
2023/11/11 11:05:58;;;;;;;2.30;2.10;;;;;;;9.06;88.01;99056.78;5036845;28;20597;-83
2023/11/11 11:08:35;;;;;;;2.83;2.03;;;;;;;9.05;88.65;99058.50;5038723;28;20303;-84
2023/11/11 11:11:24;;;;;;;2.37;2.17;;;;;;;8.93;88.09;99072.78;5037639;28;20629;-83
2023/11/11 11:13:54;;;;;;;3.23;2.23;;;;;;;9.04;88.91;99069.84;5038054;28;20296;-86
2023/11/11 11:16:28;;;;;;;3.73;2.20;;;;;;;9.23;87.64;99079.59;5038523;28;20210;-85
2023/11/11 11:18:56;;;;;;;2.03;1.80;;;;;;;8.45;87.82;99115.13;5038353;28;20318;-83
2023/11/11 11:21:22;;;;;;;2.40;1.77;;;;;;;8.68;88.42;99104.00;5037305;28;20225;-85
2023/11/11 11:23:54;;;;;;;2.20;1.60;;;;;;;8.78;88.87;99096.75;5039881;28;20280;-84
2023/11/11 11:26:29;;;;;;;1.60;1.50;;;;;;;8.95;89.00;99078.78;5040713;28;20465;-86
2023/11/11 11:29:20;;;;;;;2.47;2.10;;;;;;;8.90;87.81;99100.66;5039909;28;20198;-83
2023/11/11 11:32:22;;;;;;;3.13;2.47;;;;;;;9.04;87.46;99111.47;5026759;28;20230;-85
2023/11/11 11:35:27;;;;;;;4.17;3.07;;;;;;;8.73;87.81;99128.09;5037715;28;20299;-85
2023/11/11 11:37:54;;;;;;;2.53;2.33;;;;;;;9.14;88.45;99107.66;5039299;28;20202;-86
2023/11/11 11:43:51;;;;;;;3.23;2.10;;;;;;;9.26;89.15;99102.94;4953348;28;20232;-86